sensor_id;sensor_type;location;lat;lon;timestamp;temperature;humidity
4820;DHT22;2424;49.696;6.630;2022-12-07T00:01:26;2.70;99.90
4820;DHT22;2424;49.696;6.630;2022-12-07T00:06:52;2.70;99.90
4820;DHT22;2424;49.696;6.630;2022-12-07T00:12:14;2.80;99.90
4820;DHT22;2424;49.696;6.630;2022-12-07T00:17:36;2.80;99.90
4820;DHT22;2424;49.696;6.630;2022-12-07T00:23:00;2.80;99.90
4820;DHT22;2424;49.696;6.630;2022-12-07T00:28:22;2.80;99.90
4820;DHT22;2424;49.696;6.630;2022-12-07T00:33:44;2.80;99.90
4820;DHT22;2424;49.696;6.630;2022-12-07T00:39:08;2.80;99.90
4820;DHT22;2424;49.696;6.630;2022-12-07T00:44:30;2.80;99.90
4820;DHT22;2424;49.696;6.630;2022-12-07T00:49:52;2.80;99.90
4820;DHT22;2424;49.696;6.630;2022-12-07T00:55:15;2.80;99.90
4820;DHT22;2424;49.696;6.630;2022-12-07T01:00:39;2.80;99.90
4820;DHT22;2424;49.696;6.630;2022-12-07T01:06:01;2.80;99.90
4820;DHT22;2424;49.696;6.630;2022-12-07T01:11:27;2.80;99.90
4820;DHT22;2424;49.696;6.630;2022-12-07T01:16:49;2.80;99.90
4820;DHT22;2424;49.696;6.630;2022-12-07T01:22:11;2.80;99.90
4820;DHT22;2424;49.696;6.630;2022-12-07T01:27:35;2.80;99.90
4820;DHT22;2424;49.696;6.630;2022-12-07T01:32:57;2.80;99.90
4820;DHT22;2424;49.696;6.630;2022-12-07T01:38:19;2.80;99.90
4820;DHT22;2424;49.696;6.630;2022-12-07T01:44:20;2.80;99.90
4820;DHT22;2424;49.696;6.630;2022-12-07T01:49:44;2.80;99.90
4820;DHT22;2424;49.696;6.630;2022-12-07T01:55:12;2.80;99.90
4820;DHT22;2424;49.696;6.630;2022-12-07T02:00:36;2.80;99.90
4820;DHT22;2424;49.696;6.630;2022-12-07T02:05:59;2.80;99.90
4820;DHT22;2424;49.696;6.630;2022-12-07T02:11:21;2.80;99.90
4820;DHT22;2424;49.696;6.630;2022-12-07T02:16:55;2.80;99.90
4820;DHT22;2424;49.696;6.630;2022-12-07T02:22:37;2.80;99.90
4820;DHT22;2424;49.696;6.630;2022-12-07T02:28:07;2.80;99.90
4820;DHT22;2424;49.696;6.630;2022-12-07T02:33:38;2.80;99.90
4820;DHT22;2424;49.696;6.630;2022-12-07T02:39:06;2.80;99.90
4820;DHT22;2424;49.696;6.630;2022-12-07T02:44:30;2.80;99.90
4820;DHT22;2424;49.696;6.630;2022-12-07T02:49:55;2.90;99.90
4820;DHT22;2424;49.696;6.630;2022-12-07T02:55:21;2.90;99.90
4820;DHT22;2424;49.696;6.630;2022-12-07T03:00:51;2.90;99.90
4820;DHT22;2424;49.696;6.630;2022-12-07T03:06:20;2.90;99.90
4820;DHT22;2424;49.696;6.630;2022-12-07T03:11:47;2.90;99.90
4820;DHT22;2424;49.696;6.630;2022-12-07T03:17:12;2.90;99.90
4820;DHT22;2424;49.696;6.630;2022-12-07T03:22:39;2.90;99.90
4820;DHT22;2424;49.696;6.630;2022-12-07T03:28:05;2.90;99.90
4820;DHT22;2424;49.696;6.630;2022-12-07T03:33:30;2.90;99.90
4820;DHT22;2424;49.696;6.630;2022-12-07T03:38:58;2.90;99.90
4820;DHT22;2424;49.696;6.630;2022-12-07T03:44:23;2.90;99.90
4820;DHT22;2424;49.696;6.630;2022-12-07T03:49:50;2.90;99.90
4820;DHT22;2424;49.696;6.630;2022-12-07T03:55:18;3.00;99.90
4820;DHT22;2424;49.696;6.630;2022-12-07T04:00:42;3.00;99.90
4820;DHT22;2424;49.696;6.630;2022-12-07T04:06:05;3.00;99.90
4820;DHT22;2424;49.696;6.630;2022-12-07T04:11:29;3.00;99.90
4820;DHT22;2424;49.696;6.630;2022-12-07T04:16:52;3.00;99.90
4820;DHT22;2424;49.696;6.630;2022-12-07T04:22:16;3.00;99.90
4820;DHT22;2424;49.696;6.630;2022-12-07T04:27:40;3.00;99.90
4820;DHT22;2424;49.696;6.630;2022-12-07T04:33:02;3.00;99.90
4820;DHT22;2424;49.696;6.630;2022-12-07T04:38:24;3.00;99.90
4820;DHT22;2424;49.696;6.630;2022-12-07T04:43:48;3.00;99.90
4820;DHT22;2424;49.696;6.630;2022-12-07T04:49:10;3.00;99.90
4820;DHT22;2424;49.696;6.630;2022-12-07T04:54:32;3.10;99.90
4820;DHT22;2424;49.696;6.630;2022-12-07T04:59:56;3.10;99.90
4820;DHT22;2424;49.696;6.630;2022-12-07T05:05:17;3.10;99.90
4820;DHT22;2424;49.696;6.630;2022-12-07T05:10:39;3.10;99.90
4820;DHT22;2424;49.696;6.630;2022-12-07T05:16:03;3.10;99.90
4820;DHT22;2424;49.696;6.630;2022-12-07T05:21:25;3.10;99.90
4820;DHT22;2424;49.696;6.630;2022-12-07T05:26:47;3.10;99.90
4820;DHT22;2424;49.696;6.630;2022-12-07T05:32:10;3.10;99.90
4820;DHT22;2424;49.696;6.630;2022-12-07T05:37:32;3.10;99.90
4820;DHT22;2424;49.696;6.630;2022-12-07T05:42:54;3.10;99.90
4820;DHT22;2424;49.696;6.630;2022-12-07T05:48:17;3.10;99.90
4820;DHT22;2424;49.696;6.630;2022-12-07T05:53:39;3.10;99.90
4820;DHT22;2424;49.696;6.630;2022-12-07T05:59:01;3.10;99.90
4820;DHT22;2424;49.696;6.630;2022-12-07T06:04:44;3.10;99.90
4820;DHT22;2424;49.696;6.630;2022-12-07T06:10:07;3.10;99.90
4820;DHT22;2424;49.696;6.630;2022-12-07T06:15:29;3.20;99.90
4820;DHT22;2424;49.696;6.630;2022-12-07T06:20:52;3.20;99.90
4820;DHT22;2424;49.696;6.630;2022-12-07T06:26:14;3.20;99.90
4820;DHT22;2424;49.696;6.630;2022-12-07T06:31:36;3.20;99.90
4820;DHT22;2424;49.696;6.630;2022-12-07T06:37:00;3.20;99.90
4820;DHT22;2424;49.696;6.630;2022-12-07T06:42:22;3.20;99.90
4820;DHT22;2424;49.696;6.630;2022-12-07T06:47:44;3.20;99.90
4820;DHT22;2424;49.696;6.630;2022-12-07T06:53:07;3.20;99.90
4820;DHT22;2424;49.696;6.630;2022-12-07T06:58:30;3.20;99.90
4820;DHT22;2424;49.696;6.630;2022-12-07T07:03:52;3.20;99.90
4820;DHT22;2424;49.696;6.630;2022-12-07T07:09:15;3.20;99.90
4820;DHT22;2424;49.696;6.630;2022-12-07T07:14:37;3.20;99.90
4820;DHT22;2424;49.696;6.630;2022-12-07T07:19:59;3.20;99.90
4820;DHT22;2424;49.696;6.630;2022-12-07T07:25:23;3.30;99.90
4820;DHT22;2424;49.696;6.630;2022-12-07T07:30:45;3.30;99.90
4820;DHT22;2424;49.696;6.630;2022-12-07T07:36:08;3.30;99.90
4820;DHT22;2424;49.696;6.630;2022-12-07T07:41:31;3.30;99.90
4820;DHT22;2424;49.696;6.630;2022-12-07T07:46:53;3.30;99.90
4820;DHT22;2424;49.696;6.630;2022-12-07T07:52:15;3.30;99.90
4820;DHT22;2424;49.696;6.630;2022-12-07T07:57:39;3.30;99.90
4820;DHT22;2424;49.696;6.630;2022-12-07T08:03:02;3.40;99.90
4820;DHT22;2424;49.696;6.630;2022-12-07T08:08:23;3.30;99.90
4820;DHT22;2424;49.696;6.630;2022-12-07T08:13:47;3.40;99.90
4820;DHT22;2424;49.696;6.630;2022-12-07T08:19:09;3.40;99.90
4820;DHT22;2424;49.696;6.630;2022-12-07T08:24:33;3.40;99.90
4820;DHT22;2424;49.696;6.630;2022-12-07T08:29:56;3.40;99.90
4820;DHT22;2424;49.696;6.630;2022-12-07T08:35:18;3.40;99.90
4820;DHT22;2424;49.696;6.630;2022-12-07T08:40:40;3.40;99.90
4820;DHT22;2424;49.696;6.630;2022-12-07T08:46:09;3.50;99.90
4820;DHT22;2424;49.696;6.630;2022-12-07T08:51:31;3.50;99.90
4820;DHT22;2424;49.696;6.630;2022-12-07T08:56:54;3.50;99.90
4820;DHT22;2424;49.696;6.630;2022-12-07T09:02:18;3.50;99.90
4820;DHT22;2424;49.696;6.630;2022-12-07T09:07:40;3.50;99.90
4820;DHT22;2424;49.696;6.630;2022-12-07T09:13:02;3.50;99.90
4820;DHT22;2424;49.696;6.630;2022-12-07T09:18:25;3.60;99.90
4820;DHT22;2424;49.696;6.630;2022-12-07T09:23:47;3.60;99.90
4820;DHT22;2424;49.696;6.630;2022-12-07T09:29:09;3.60;99.90
4820;DHT22;2424;49.696;6.630;2022-12-07T09:34:33;3.60;99.90
4820;DHT22;2424;49.696;6.630;2022-12-07T09:39:55;3.60;99.90
4820;DHT22;2424;49.696;6.630;2022-12-07T09:45:19;3.70;99.90
4820;DHT22;2424;49.696;6.630;2022-12-07T09:50:43;3.80;99.90
4820;DHT22;2424;49.696;6.630;2022-12-07T09:56:06;3.80;99.90
4820;DHT22;2424;49.696;6.630;2022-12-07T10:01:29;3.80;99.90
4820;DHT22;2424;49.696;6.630;2022-12-07T10:06:53;3.80;99.90
4820;DHT22;2424;49.696;6.630;2022-12-07T10:12:15;4.00;99.90
4820;DHT22;2424;49.696;6.630;2022-12-07T10:17:39;4.10;99.90
4820;DHT22;2424;49.696;6.630;2022-12-07T10:23:05;4.10;99.90
4820;DHT22;2424;49.696;6.630;2022-12-07T10:28:34;4.20;99.90
4820;DHT22;2424;49.696;6.630;2022-12-07T10:33:58;4.20;99.90
4820;DHT22;2424;49.696;6.630;2022-12-07T10:39:23;4.30;99.90
4820;DHT22;2424;49.696;6.630;2022-12-07T10:44:46;4.40;99.90
4820;DHT22;2424;49.696;6.630;2022-12-07T10:50:29;4.40;99.90
4820;DHT22;2424;49.696;6.630;2022-12-07T10:56:19;4.30;99.90
4820;DHT22;2424;49.696;6.630;2022-12-07T11:01:48;4.30;99.90
4820;DHT22;2424;49.696;6.630;2022-12-07T11:07:18;4.30;99.90
4820;DHT22;2424;49.696;6.630;2022-12-07T11:18:42;4.30;99.90
4820;DHT22;2424;49.696;6.630;2022-12-07T11:24:10;4.30;99.90
4820;DHT22;2424;49.696;6.630;2022-12-07T11:29:47;4.30;99.90
4820;DHT22;2424;49.696;6.630;2022-12-07T11:35:21;4.30;99.90
4820;DHT22;2424;49.696;6.630;2022-12-07T11:40:47;4.30;99.90
4820;DHT22;2424;49.696;6.630;2022-12-07T11:46:12;4.50;99.90
4820;DHT22;2424;49.696;6.630;2022-12-07T11:51:38;4.60;99.90
4820;DHT22;2424;49.696;6.630;2022-12-07T11:57:04;4.70;99.90
4820;DHT22;2424;49.696;6.630;2022-12-07T12:02:34;4.70;99.90
4820;DHT22;2424;49.696;6.630;2022-12-07T12:08:05;4.70;99.90
4820;DHT22;2424;49.696;6.630;2022-12-07T12:13:56;4.70;99.90
4820;DHT22;2424;49.696;6.630;2022-12-07T12:19:32;4.70;99.90
4820;DHT22;2424;49.696;6.630;2022-12-07T12:24:56;4.70;99.90
4820;DHT22;2424;49.696;6.630;2022-12-07T12:30:31;4.70;99.90
4820;DHT22;2424;49.696;6.630;2022-12-07T12:36:22;4.70;99.90
4820;DHT22;2424;49.696;6.630;2022-12-07T12:41:55;4.60;99.90
4820;DHT22;2424;49.696;6.630;2022-12-07T12:53:27;4.60;99.90
4820;DHT22;2424;49.696;6.630;2022-12-07T12:59:24;4.60;99.90
4820;DHT22;2424;49.696;6.630;2022-12-07T13:04:53;4.60;99.90
4820;DHT22;2424;49.696;6.630;2022-12-07T13:22:02;4.60;99.90
4820;DHT22;2424;49.696;6.630;2022-12-07T13:27:25;4.60;99.90
4820;DHT22;2424;49.696;6.630;2022-12-07T13:32:52;4.60;99.90
4820;DHT22;2424;49.696;6.630;2022-12-07T13:38:25;4.60;99.90
4820;DHT22;2424;49.696;6.630;2022-12-07T13:43:53;4.60;99.90
4820;DHT22;2424;49.696;6.630;2022-12-07T13:49:22;4.60;99.90
4820;DHT22;2424;49.696;6.630;2022-12-07T13:54:47;4.70;99.90
4820;DHT22;2424;49.696;6.630;2022-12-07T14:00:16;4.70;99.90
4820;DHT22;2424;49.696;6.630;2022-12-07T14:05:39;4.70;99.90
4820;DHT22;2424;49.696;6.630;2022-12-07T14:11:02;4.70;99.90
4820;DHT22;2424;49.696;6.630;2022-12-07T14:16:29;4.70;99.90
4820;DHT22;2424;49.696;6.630;2022-12-07T14:22:06;4.70;99.90
4820;DHT22;2424;49.696;6.630;2022-12-07T14:27:33;4.60;99.90
4820;DHT22;2424;49.696;6.630;2022-12-07T14:32:59;4.60;99.90
4820;DHT22;2424;49.696;6.630;2022-12-07T14:38:21;4.60;99.90
4820;DHT22;2424;49.696;6.630;2022-12-07T14:43:44;4.60;99.90
4820;DHT22;2424;49.696;6.630;2022-12-07T14:49:07;4.60;99.90
4820;DHT22;2424;49.696;6.630;2022-12-07T14:54:31;4.60;99.90
4820;DHT22;2424;49.696;6.630;2022-12-07T14:59:55;4.60;99.90
4820;DHT22;2424;49.696;6.630;2022-12-07T15:05:17;4.60;99.90
4820;DHT22;2424;49.696;6.630;2022-12-07T15:10:39;4.60;99.90
4820;DHT22;2424;49.696;6.630;2022-12-07T15:16:03;4.60;99.90
4820;DHT22;2424;49.696;6.630;2022-12-07T15:21:25;4.50;99.90
4820;DHT22;2424;49.696;6.630;2022-12-07T15:26:46;4.50;99.90
4820;DHT22;2424;49.696;6.630;2022-12-07T15:32:10;4.50;99.90
4820;DHT22;2424;49.696;6.630;2022-12-07T15:37:32;4.50;99.90
4820;DHT22;2424;49.696;6.630;2022-12-07T15:42:53;4.50;99.90
4820;DHT22;2424;49.696;6.630;2022-12-07T15:48:17;4.40;99.90
4820;DHT22;2424;49.696;6.630;2022-12-07T15:53:39;4.40;99.90
4820;DHT22;2424;49.696;6.630;2022-12-07T15:59:01;4.40;99.90
4820;DHT22;2424;49.696;6.630;2022-12-07T16:04:26;4.40;99.90
4820;DHT22;2424;49.696;6.630;2022-12-07T16:09:48;4.40;99.90
4820;DHT22;2424;49.696;6.630;2022-12-07T16:15:11;4.40;99.90
4820;DHT22;2424;49.696;6.630;2022-12-07T16:20:34;4.30;99.90
4820;DHT22;2424;49.696;6.630;2022-12-07T16:26:04;4.30;99.90
4820;DHT22;2424;49.696;6.630;2022-12-07T16:31:27;4.30;99.90
4820;DHT22;2424;49.696;6.630;2022-12-07T16:36:50;4.20;99.90
4820;DHT22;2424;49.696;6.630;2022-12-07T16:42:12;4.20;99.90
4820;DHT22;2424;49.696;6.630;2022-12-07T16:47:37;4.20;99.90
4820;DHT22;2424;49.696;6.630;2022-12-07T16:53:00;4.10;99.90
4820;DHT22;2424;49.696;6.630;2022-12-07T16:58:22;4.10;99.90
4820;DHT22;2424;49.696;6.630;2022-12-07T17:03:44;4.10;99.90
4820;DHT22;2424;49.696;6.630;2022-12-07T17:09:08;4.10;99.90
4820;DHT22;2424;49.696;6.630;2022-12-07T17:14:32;4.10;99.90
4820;DHT22;2424;49.696;6.630;2022-12-07T17:20:12;4.10;99.90
4820;DHT22;2424;49.696;6.630;2022-12-07T17:25:36;4.00;99.90
4820;DHT22;2424;49.696;6.630;2022-12-07T17:30:58;4.00;99.90
4820;DHT22;2424;49.696;6.630;2022-12-07T17:36:21;4.00;99.90
4820;DHT22;2424;49.696;6.630;2022-12-07T17:41:45;4.10;99.90
4820;DHT22;2424;49.696;6.630;2022-12-07T17:47:25;4.00;99.90
4820;DHT22;2424;49.696;6.630;2022-12-07T17:52:47;4.00;99.90
4820;DHT22;2424;49.696;6.630;2022-12-07T17:58:27;4.00;99.90
4820;DHT22;2424;49.696;6.630;2022-12-07T18:03:49;4.00;99.90
4820;DHT22;2424;49.696;6.630;2022-12-07T18:09:12;4.00;99.90
4820;DHT22;2424;49.696;6.630;2022-12-07T18:14:35;4.00;99.90
4820;DHT22;2424;49.696;6.630;2022-12-07T18:19:57;4.00;99.90
4820;DHT22;2424;49.696;6.630;2022-12-07T18:25:19;4.00;99.90
4820;DHT22;2424;49.696;6.630;2022-12-07T18:30:42;3.90;99.90
4820;DHT22;2424;49.696;6.630;2022-12-07T18:36:10;4.00;99.90
4820;DHT22;2424;49.696;6.630;2022-12-07T18:41:32;4.00;99.90
4820;DHT22;2424;49.696;6.630;2022-12-07T18:46:56;4.00;99.90
4820;DHT22;2424;49.696;6.630;2022-12-07T18:52:18;4.00;99.90
4820;DHT22;2424;49.696;6.630;2022-12-07T18:57:39;4.00;99.90
4820;DHT22;2424;49.696;6.630;2022-12-07T19:03:03;4.00;99.90
4820;DHT22;2424;49.696;6.630;2022-12-07T19:08:25;4.00;99.90
4820;DHT22;2424;49.696;6.630;2022-12-07T19:13:47;4.00;99.90
4820;DHT22;2424;49.696;6.630;2022-12-07T19:19:10;3.90;99.90
4820;DHT22;2424;49.696;6.630;2022-12-07T19:24:32;3.90;99.90
4820;DHT22;2424;49.696;6.630;2022-12-07T19:29:54;3.90;99.90
4820;DHT22;2424;49.696;6.630;2022-12-07T19:35:18;3.90;99.90
4820;DHT22;2424;49.696;6.630;2022-12-07T19:40:55;3.90;99.90
4820;DHT22;2424;49.696;6.630;2022-12-07T19:46:24;3.90;99.90
4820;DHT22;2424;49.696;6.630;2022-12-07T19:51:49;3.90;99.90
4820;DHT22;2424;49.696;6.630;2022-12-07T19:57:12;3.80;99.90
4820;DHT22;2424;49.696;6.630;2022-12-07T20:02:40;3.80;99.90
4820;DHT22;2424;49.696;6.630;2022-12-07T20:08:05;3.80;99.90
4820;DHT22;2424;49.696;6.630;2022-12-07T20:13:27;3.90;99.90
4820;DHT22;2424;49.696;6.630;2022-12-07T20:18:51;3.90;99.90
4820;DHT22;2424;49.696;6.630;2022-12-07T20:24:17;3.90;99.90
4820;DHT22;2424;49.696;6.630;2022-12-07T20:29:39;3.80;99.90
4820;DHT22;2424;49.696;6.630;2022-12-07T20:35:01;3.80;99.90
4820;DHT22;2424;49.696;6.630;2022-12-07T20:40:24;3.80;99.90
4820;DHT22;2424;49.696;6.630;2022-12-07T20:45:47;3.70;99.90
4820;DHT22;2424;49.696;6.630;2022-12-07T20:51:09;3.70;99.90
4820;DHT22;2424;49.696;6.630;2022-12-07T20:56:33;3.80;99.90
4820;DHT22;2424;49.696;6.630;2022-12-07T21:01:55;3.80;99.90
4820;DHT22;2424;49.696;6.630;2022-12-07T21:07:17;3.80;99.90
4820;DHT22;2424;49.696;6.630;2022-12-07T21:12:41;3.80;99.90
4820;DHT22;2424;49.696;6.630;2022-12-07T21:18:03;3.60;99.90
4820;DHT22;2424;49.696;6.630;2022-12-07T21:23:25;3.60;99.90
4820;DHT22;2424;49.696;6.630;2022-12-07T21:28:48;3.70;99.90
4820;DHT22;2424;49.696;6.630;2022-12-07T21:34:11;3.70;99.90
4820;DHT22;2424;49.696;6.630;2022-12-07T21:39:32;3.60;99.90
4820;DHT22;2424;49.696;6.630;2022-12-07T21:44:56;3.60;99.90
4820;DHT22;2424;49.696;6.630;2022-12-07T21:50:18;3.60;99.90
4820;DHT22;2424;49.696;6.630;2022-12-07T21:55:40;3.60;99.90
4820;DHT22;2424;49.696;6.630;2022-12-07T22:01:04;3.60;99.90
4820;DHT22;2424;49.696;6.630;2022-12-07T22:06:27;3.60;99.90
4820;DHT22;2424;49.696;6.630;2022-12-07T22:11:49;3.60;99.90
4820;DHT22;2424;49.696;6.630;2022-12-07T22:17:12;3.50;99.90
4820;DHT22;2424;49.696;6.630;2022-12-07T22:22:34;3.60;99.90
4820;DHT22;2424;49.696;6.630;2022-12-07T22:27:56;3.50;99.90
4820;DHT22;2424;49.696;6.630;2022-12-07T22:33:19;3.50;99.90
4820;DHT22;2424;49.696;6.630;2022-12-07T22:38:41;3.50;99.90
4820;DHT22;2424;49.696;6.630;2022-12-07T22:44:05;3.50;99.90
4820;DHT22;2424;49.696;6.630;2022-12-07T22:49:29;3.50;99.90
4820;DHT22;2424;49.696;6.630;2022-12-07T22:54:51;3.50;99.90
4820;DHT22;2424;49.696;6.630;2022-12-07T23:00:14;3.50;99.90
4820;DHT22;2424;49.696;6.630;2022-12-07T23:05:41;3.60;99.90
4820;DHT22;2424;49.696;6.630;2022-12-07T23:11:03;3.60;99.90
4820;DHT22;2424;49.696;6.630;2022-12-07T23:16:28;3.50;99.90
4820;DHT22;2424;49.696;6.630;2022-12-07T23:21:52;3.50;99.90
4820;DHT22;2424;49.696;6.630;2022-12-07T23:27:14;3.50;99.90
4820;DHT22;2424;49.696;6.630;2022-12-07T23:32:35;3.50;99.90
4820;DHT22;2424;49.696;6.630;2022-12-07T23:37:59;3.50;99.90
4820;DHT22;2424;49.696;6.630;2022-12-07T23:43:21;3.50;99.90
4820;DHT22;2424;49.696;6.630;2022-12-07T23:48:43;3.40;99.90
4820;DHT22;2424;49.696;6.630;2022-12-07T23:54:07;3.50;99.90
4820;DHT22;2424;49.696;6.630;2022-12-07T23:59:30;3.50;99.90
